createdAt,value
2018-02-03T00:00:59.123Z,81.20
2018-02-03T00:03:25.656Z,81.10
2018-02-03T00:05:52.866Z,81.30
2018-02-03T00:08:19.313Z,81.30
2018-02-03T00:10:46.572Z,81.50
2018-02-03T00:13:13.006Z,81.50
2018-02-03T00:15:39.491Z,81.50
2018-02-03T00:18:19.425Z,81.70
2018-02-03T00:20:50.044Z,81.50
2018-02-03T00:23:16.460Z,81.60
2018-02-03T00:25:43.685Z,82.40
2018-02-03T00:28:10.113Z,82.40
2018-02-03T00:30:36.688Z,82.30
2018-02-03T00:33:03.266Z,82.50
2018-02-03T00:35:29.718Z,82.40
2018-02-03T00:37:56.157Z,82.20
2018-02-03T00:40:22.621Z,82.30
2018-02-03T00:42:49.108Z,82.50
2018-02-03T00:45:15.571Z,82.50
2018-02-03T00:47:42.030Z,82.30
2018-02-03T00:50:08.490Z,82.40
2018-02-03T00:52:35.696Z,82.50
2018-02-03T00:55:02.138Z,82.40
2018-02-03T00:57:28.605Z,82.40
2018-02-03T00:59:55.798Z,82.50
2018-02-03T01:02:22.274Z,82.50
2018-02-03T01:04:48.747Z,82.50
2018-02-03T01:07:15.294Z,83.20
2018-02-03T01:09:41.779Z,82.50
2018-02-03T01:12:08.242Z,82.50
2018-02-03T01:14:34.727Z,82.40
2018-02-03T01:17:19.553Z,82.50
2018-02-03T01:19:45.990Z,82.40
2018-02-03T01:22:12.453Z,82.50
2018-02-03T01:24:38.977Z,82.70
2018-02-03T01:27:05.498Z,82.70
2018-02-03T01:29:31.942Z,82.50
2018-02-03T01:31:58.437Z,82.50
2018-02-03T01:37:25.160Z,82.50
2018-02-03T01:39:54.568Z,82.40
2018-02-03T01:42:21.008Z,82.40
2018-02-03T01:44:47.581Z,82.40
2018-02-03T01:47:14.012Z,82.40
2018-02-03T01:49:40.485Z,82.40
2018-02-03T01:52:06.969Z,82.40
2018-02-03T01:54:33.416Z,82.40
2018-02-03T01:56:59.892Z,82.50
2018-02-03T01:59:26.477Z,82.40
2018-02-03T02:01:53.033Z,82.40
2018-02-03T02:04:20.241Z,81.90
2018-02-03T02:06:46.653Z,81.80
2018-02-03T02:09:13.129Z,81.50
2018-02-03T02:11:39.633Z,81.50
2018-02-03T02:14:06.111Z,81.30
2018-02-03T02:16:49.622Z,81.50
2018-02-03T02:19:16.101Z,81.40
2018-02-03T02:21:43.306Z,81.50
2018-02-03T02:24:09.796Z,81.40
2018-02-03T02:26:37.027Z,81.30
2018-02-03T02:29:04.185Z,81.80
2018-02-03T02:31:31.401Z,81.40
2018-02-03T02:33:57.836Z,81.40
2018-02-03T02:36:24.337Z,81.10
2018-02-03T02:38:50.769Z,80.90
2018-02-03T02:41:17.290Z,80.90
2018-02-03T02:43:43.740Z,80.90
2018-02-03T02:46:10.326Z,80.90
2018-02-03T02:48:36.771Z,80.90
2018-02-03T02:51:03.508Z,81.00
2018-02-03T02:53:31.178Z,80.80
2018-02-03T02:55:58.833Z,80.50
2018-02-03T02:58:26.187Z,80.60
2018-02-03T03:00:52.929Z,80.60
2018-02-03T03:03:19.670Z,81.40
2018-02-03T03:05:46.313Z,80.70
2018-02-03T03:08:13.768Z,80.50
2018-02-03T03:10:40.412Z,80.50
2018-02-03T03:13:07.868Z,81.10
2018-02-03T03:15:34.605Z,81.60
2018-02-03T03:18:11.688Z,80.80
2018-02-03T03:20:38.432Z,80.60
2018-02-03T03:23:05.174Z,80.70
2018-02-03T03:25:32.740Z,81.00
2018-02-03T03:27:59.369Z,81.00
2018-02-03T03:30:26.112Z,81.20
2018-02-03T03:32:52.852Z,81.80
2018-02-03T03:35:19.696Z,82.00
2018-02-03T03:37:46.336Z,82.20
2018-02-03T03:40:13.082Z,82.50
2018-02-03T03:42:40.535Z,83.00
2018-02-03T03:45:07.174Z,83.00
2018-02-03T03:47:33.910Z,82.60
2018-02-03T03:50:01.373Z,83.70
2018-02-03T03:55:28.598Z,83.50
2018-02-03T03:57:55.254Z,83.80
2018-02-03T04:00:21.784Z,84.30
2018-02-03T04:02:52.302Z,84.70
2018-02-03T04:05:18.854Z,84.80
2018-02-03T04:07:45.459Z,85.20
2018-02-03T04:10:12.054Z,85.40
2018-02-03T04:12:38.676Z,85.80
2018-02-03T04:15:05.214Z,86.20
2018-02-03T04:17:31.766Z,86.60
2018-02-03T04:19:58.283Z,86.60
2018-02-03T04:22:24.856Z,86.70
2018-02-03T04:24:52.155Z,86.70
2018-02-03T04:27:18.691Z,87.40
2018-02-03T04:29:45.285Z,86.70
2018-02-03T04:32:12.642Z,86.40
2018-02-03T04:34:39.202Z,86.40
2018-02-03T04:37:06.496Z,86.60
2018-02-03T04:39:33.090Z,86.60
2018-02-03T04:41:59.640Z,86.60
2018-02-03T04:44:26.213Z,86.60
2018-02-03T04:46:52.742Z,86.50
2018-02-03T04:49:20.804Z,86.30
2018-02-03T04:51:47.346Z,86.30
2018-02-03T04:54:13.906Z,86.40
2018-02-03T04:56:41.202Z,85.70
2018-02-03T04:59:07.752Z,86.20
2018-02-03T05:01:34.286Z,86.00
2018-02-03T05:04:00.858Z,86.10
2018-02-03T05:06:27.379Z,86.20
2018-02-03T05:08:53.931Z,86.00
2018-02-03T05:11:20.444Z,85.90
2018-02-03T05:13:48.055Z,85.80
2018-02-03T05:16:14.694Z,85.90
2018-02-03T05:18:41.317Z,85.90
2018-02-03T05:21:07.855Z,86.10
2018-02-03T05:23:34.455Z,86.00
2018-02-03T05:26:00.998Z,85.80
2018-02-03T05:28:27.594Z,86.10
2018-02-03T05:30:54.099Z,86.10
2018-02-03T05:33:20.701Z,86.60
2018-02-03T05:35:47.230Z,85.60
2018-02-03T05:38:13.832Z,85.70
2018-02-03T05:40:41.162Z,85.70
2018-02-03T05:43:07.834Z,85.60
2018-02-03T05:45:34.527Z,85.80
2018-02-03T05:48:01.126Z,85.80
2018-02-03T05:50:27.726Z,85.70
2018-02-03T05:52:55.070Z,85.90
2018-02-03T05:55:21.707Z,85.90
2018-02-03T05:57:48.378Z,85.80
2018-02-03T06:00:14.906Z,85.70
2018-02-03T06:02:41.467Z,85.80
2018-02-03T06:05:08.023Z,85.90
2018-02-03T06:07:34.538Z,85.80
2018-02-03T06:10:01.368Z,86.10
2018-02-03T06:12:28.697Z,86.50
2018-02-03T06:14:55.278Z,86.40
2018-02-03T06:17:21.874Z,86.70
2018-02-03T06:19:48.497Z,86.90
2018-02-03T06:22:15.176Z,87.10
2018-02-03T06:24:41.762Z,87.50
2018-02-03T06:27:08.301Z,87.50
2018-02-03T06:29:34.834Z,87.60
2018-02-03T06:32:01.440Z,87.60
2018-02-03T06:34:28.707Z,88.40
2018-02-03T06:36:55.269Z,88.20
2018-02-03T06:39:21.862Z,88.80
2018-02-03T06:41:48.453Z,89.00
2018-02-03T06:44:15.029Z,89.00
2018-02-03T06:46:42.370Z,89.60
2018-02-03T06:49:09.663Z,89.50
2018-02-03T06:51:36.215Z,89.50
2018-02-03T06:54:02.802Z,89.60
2018-02-03T06:56:29.558Z,89.40
2018-02-03T06:58:56.880Z,89.40
2018-02-03T07:01:24.251Z,89.40
2018-02-03T07:03:50.851Z,89.40
2018-02-03T07:06:17.507Z,89.30
2018-02-03T07:08:44.186Z,89.40
2018-02-03T07:11:10.806Z,89.40
2018-02-03T07:13:37.368Z,89.50
2018-02-03T07:16:04.792Z,89.30
2018-02-03T07:18:32.172Z,89.50
2018-02-03T07:20:58.784Z,89.40
2018-02-03T07:23:25.359Z,89.40
2018-02-03T07:25:56.595Z,89.50
2018-02-03T07:28:23.151Z,89.40
2018-02-03T07:30:56.450Z,89.50
2018-02-03T07:33:23.094Z,89.40
2018-02-03T07:35:53.562Z,89.40
2018-02-03T07:38:20.155Z,89.40
2018-02-03T07:40:46.750Z,89.30
2018-02-03T07:43:14.110Z,89.00
2018-02-03T07:45:41.407Z,88.10
2018-02-03T07:48:07.970Z,88.00
2018-02-03T07:50:34.576Z,87.70
2018-02-03T07:53:01.150Z,87.70
2018-02-03T07:55:27.719Z,87.70
2018-02-03T07:57:55.078Z,87.00
2018-02-03T08:00:23.107Z,86.30
2018-02-03T08:02:49.695Z,86.30
2018-02-03T08:05:16.257Z,86.30
2018-02-03T08:07:42.845Z,86.40
2018-02-03T08:10:09.730Z,86.40
2018-02-03T08:12:37.064Z,86.60
2018-02-03T08:15:05.419Z,86.30
2018-02-03T08:17:32.051Z,86.20
2018-02-03T08:19:58.728Z,86.00
2018-02-03T08:22:25.777Z,85.80
2018-02-03T08:24:52.492Z,86.30
2018-02-03T08:27:19.158Z,85.60
2018-02-03T08:29:45.698Z,85.60
2018-02-03T08:32:14.180Z,85.40
2018-02-03T08:34:42.868Z,85.30
2018-02-03T08:37:09.419Z,84.70
2018-02-03T08:39:36.782Z,85.00
2018-02-03T08:42:03.496Z,85.00
2018-02-03T08:44:30.962Z,85.00
2018-02-03T08:46:58.255Z,84.90
2018-02-03T08:49:24.911Z,84.80
2018-02-03T08:51:51.451Z,83.70
2018-02-03T08:54:18.006Z,82.90
2018-02-03T08:56:44.548Z,83.10
2018-02-03T08:59:11.069Z,83.00
2018-02-03T09:01:37.620Z,83.10
2018-02-03T09:04:04.168Z,82.90
2018-02-03T09:06:30.705Z,82.40
2018-02-03T09:08:57.994Z,82.40
2018-02-03T09:11:24.522Z,82.30
2018-02-03T09:13:51.781Z,82.70
2018-02-03T09:16:18.349Z,82.60
2018-02-03T09:18:44.871Z,83.10
2018-02-03T09:21:11.427Z,82.60
2018-02-03T09:23:38.060Z,81.80
2018-02-03T09:26:08.441Z,82.60
2018-02-03T09:28:35.018Z,82.60
2018-02-03T09:31:01.701Z,83.00
2018-02-03T09:33:29.028Z,81.70
2018-02-03T09:38:56.630Z,81.70
2018-02-03T09:41:27.272Z,81.60
2018-02-03T09:43:53.870Z,82.00
2018-02-03T09:46:20.485Z,79.90
2018-02-03T09:48:47.188Z,80.50
2018-02-03T09:51:13.719Z,78.80
2018-02-03T09:53:40.316Z,79.10
2018-02-03T09:56:06.886Z,79.60
2018-02-03T09:58:33.604Z,80.10
2018-02-03T10:01:24.754Z,79.80
2018-02-03T10:03:52.110Z,79.50
2018-02-03T10:06:18.644Z,79.40
2018-02-03T10:08:45.231Z,78.30
2018-02-03T10:11:11.770Z,78.30
2018-02-03T10:13:48.363Z,78.60
2018-02-03T10:16:14.893Z,78.40
2018-02-03T10:18:41.530Z,78.60
2018-02-03T10:21:08.107Z,77.00
2018-02-03T10:23:35.403Z,74.40
2018-02-03T10:26:08.142Z,74.30
2018-02-03T10:28:35.471Z,74.20
2018-02-03T10:31:03.033Z,74.00
2018-02-03T10:33:29.646Z,73.90
2018-02-03T10:35:56.302Z,75.00
2018-02-03T10:38:22.851Z,74.10
2018-02-03T10:40:49.423Z,73.90
2018-02-03T10:43:20.042Z,74.40
2018-02-03T10:45:46.646Z,74.20
2018-02-03T10:48:13.263Z,74.10
2018-02-03T10:50:39.857Z,74.10
2018-02-03T10:53:06.419Z,75.20
2018-02-03T10:55:33.698Z,74.00
2018-02-03T10:58:00.251Z,73.90
2018-02-03T11:03:29.550Z,74.70
2018-02-03T11:05:56.153Z,74.10
2018-02-03T11:08:23.435Z,74.50
2018-02-03T11:10:49.956Z,74.50
2018-02-03T11:13:17.242Z,75.40
2018-02-03T11:15:43.842Z,75.30
2018-02-03T11:18:11.147Z,74.60
2018-02-03T11:20:37.766Z,74.60
2018-02-03T11:23:04.409Z,74.90
2018-02-03T11:25:30.932Z,74.90
2018-02-03T11:27:57.492Z,74.50
2018-02-03T11:30:25.563Z,76.00
2018-02-03T11:32:52.205Z,75.90
2018-02-03T11:35:18.831Z,75.10
2018-02-03T11:37:45.417Z,74.60
2018-02-03T11:40:11.979Z,75.50
2018-02-03T11:42:39.414Z,74.80
2018-02-03T11:45:13.242Z,74.80
2018-02-03T11:47:40.568Z,73.30
2018-02-03T11:50:07.855Z,73.30
2018-02-03T11:52:34.398Z,73.20
2018-02-03T11:55:01.074Z,74.80
2018-02-03T11:57:27.611Z,73.30
2018-02-03T12:00:02.418Z,73.00
2018-02-03T12:02:28.954Z,73.50
2018-02-03T12:04:55.544Z,73.20
2018-02-03T12:07:22.090Z,76.00
2018-02-03T12:09:49.498Z,76.60
2018-02-03T12:12:16.033Z,76.40
2018-02-03T12:14:42.574Z,76.70
2018-02-03T12:17:09.215Z,75.90
2018-02-03T12:19:35.807Z,75.60
2018-02-03T12:22:02.432Z,75.90
2018-02-03T12:24:29.078Z,75.90
2018-02-03T12:26:55.627Z,75.10
2018-02-03T12:29:22.204Z,75.40
2018-02-03T12:31:48.782Z,77.20
2018-02-03T12:34:16.146Z,76.00
2018-02-03T12:36:43.444Z,75.50
2018-02-03T12:39:09.994Z,75.40
2018-02-03T12:41:40.435Z,76.20
2018-02-03T12:44:06.996Z,75.60
2018-02-03T12:46:34.317Z,74.90
2018-02-03T12:49:08.295Z,74.80
2018-02-03T12:51:42.419Z,73.70
2018-02-03T12:54:10.257Z,74.30
2018-02-03T12:56:37.559Z,72.10
2018-02-03T12:59:04.126Z,72.10
2018-02-03T13:01:31.443Z,72.50
2018-02-03T13:04:05.198Z,72.00
2018-02-03T13:06:36.631Z,71.60
2018-02-03T13:09:03.592Z,74.30
2018-02-03T13:11:30.187Z,73.10
2018-02-03T13:14:09.019Z,72.60
2018-02-03T13:16:37.642Z,72.50
2018-02-03T13:19:05.032Z,72.40
2018-02-03T13:21:35.479Z,72.30
2018-02-03T13:24:07.006Z,71.50
2018-02-03T13:26:33.720Z,69.90
2018-02-03T13:29:00.323Z,70.50
2018-02-03T13:31:27.990Z,72.00
2018-02-03T13:33:54.555Z,72.70
2018-02-03T13:36:21.141Z,72.60
2018-02-03T13:38:47.700Z,71.70
2018-02-03T13:41:14.239Z,72.60
2018-02-03T13:43:40.913Z,72.50
2018-02-03T13:46:07.438Z,73.60
2018-02-03T13:48:33.970Z,74.80
2018-02-03T13:51:00.582Z,76.00
2018-02-03T13:53:27.959Z,77.70
2018-02-03T13:55:54.522Z,77.60
2018-02-03T13:58:21.814Z,77.50
2018-02-03T14:00:48.434Z,77.40
2018-02-03T14:03:19.975Z,77.70
2018-02-03T14:05:47.278Z,77.70
2018-02-03T14:08:13.913Z,77.60
2018-02-03T14:10:40.471Z,77.80
2018-02-03T14:13:07.010Z,78.40
2018-02-03T14:15:38.684Z,77.80
2018-02-03T14:18:05.221Z,78.40
2018-02-03T14:20:32.568Z,78.30
2018-02-03T14:22:59.087Z,78.30
2018-02-03T14:25:25.814Z,78.60
2018-02-03T14:27:52.450Z,79.60
2018-02-03T14:30:25.075Z,80.20
2018-02-03T14:33:04.883Z,81.20
2018-02-03T14:35:31.532Z,80.60
2018-02-03T14:37:58.104Z,80.00
2018-02-03T14:40:24.757Z,79.40
2018-02-03T14:42:52.115Z,79.40
2018-02-03T14:45:37.990Z,78.70
2018-02-03T14:48:08.384Z,79.10
2018-02-03T14:50:35.048Z,78.30
2018-02-03T14:53:01.662Z,78.10
2018-02-03T14:55:28.238Z,78.10
2018-02-03T14:57:55.580Z,78.80
2018-02-03T15:00:22.427Z,78.80
2018-02-03T15:02:56.250Z,78.80
2018-02-03T15:05:24.878Z,77.90
2018-02-03T15:07:51.414Z,77.50
2018-02-03T15:10:24.987Z,78.30
2018-02-03T15:12:52.821Z,78.10
2018-02-03T15:15:19.360Z,78.50
2018-02-03T15:17:48.674Z,80.40
2018-02-03T15:20:15.962Z,80.50
2018-02-03T15:22:42.654Z,80.50
2018-02-03T15:25:16.087Z,80.30
2018-02-03T15:27:46.578Z,80.20
2018-02-03T15:30:13.140Z,81.00
2018-02-03T15:32:41.807Z,81.20
2018-02-03T15:35:08.368Z,81.10
2018-02-03T15:37:35.650Z,80.90
2018-02-03T15:40:02.252Z,80.90
2018-02-03T15:42:29.618Z,81.10
2018-02-03T15:44:56.197Z,81.00
2018-02-03T15:47:22.814Z,81.00
2018-02-03T15:49:53.370Z,80.90
2018-02-03T15:52:20.036Z,81.00
2018-02-03T15:54:46.663Z,81.30
2018-02-03T15:57:13.280Z,81.40
2018-02-03T15:59:39.826Z,80.90
2018-02-03T16:02:06.426Z,80.80
2018-02-03T16:04:40.167Z,80.70
2018-02-03T16:07:10.599Z,81.00
2018-02-03T16:09:37.362Z,81.30
2018-02-03T16:12:11.044Z,81.40
2018-02-03T16:14:37.574Z,81.30
2018-02-03T16:17:04.199Z,81.30
2018-02-03T16:19:36.698Z,81.50
2018-02-03T16:22:04.141Z,81.20
2018-02-03T16:24:30.698Z,81.20
2018-02-03T16:26:57.994Z,80.80
2018-02-03T16:29:24.587Z,80.80
2018-02-03T16:31:51.218Z,81.30
2018-02-03T16:34:17.810Z,82.10
2018-02-03T16:36:44.397Z,82.00
2018-02-03T16:39:11.021Z,82.10
2018-02-03T16:41:37.554Z,81.90
2018-02-03T16:44:04.203Z,81.50
2018-02-03T16:46:43.953Z,81.50
2018-02-03T16:49:10.695Z,81.60
2018-02-03T16:51:38.039Z,81.20
2018-02-03T16:54:08.722Z,81.00
2018-02-03T16:56:41.238Z,81.20
2018-02-03T16:59:14.934Z,81.80
2018-02-03T17:01:47.440Z,81.50
2018-02-03T17:04:16.238Z,82.10
2018-02-03T17:06:49.848Z,82.40
2018-02-03T17:09:17.184Z,82.80
2018-02-03T17:11:44.813Z,82.80
2018-02-03T17:14:15.223Z,83.20
2018-02-03T17:16:46.390Z,82.30
2018-02-03T17:19:16.875Z,82.20
2018-02-03T17:21:47.290Z,81.90
2018-02-03T17:24:14.594Z,82.40
2018-02-03T17:26:41.203Z,81.90
2018-02-03T17:29:17.046Z,82.30
2018-02-03T17:31:50.507Z,82.90
2018-02-03T17:34:17.054Z,82.50
2018-02-03T17:36:50.820Z,82.50
2018-02-03T17:39:17.639Z,83.10
2018-02-03T17:41:44.950Z,83.40
2018-02-03T17:44:11.532Z,83.20
2018-02-03T17:46:49.006Z,83.90
2018-02-03T17:49:18.531Z,83.80
2018-02-03T17:51:52.903Z,84.00
2018-02-03T17:54:24.610Z,83.80
2018-02-03T17:56:58.095Z,83.80
2018-02-03T17:59:35.775Z,83.70
2018-02-03T18:02:08.452Z,83.90
2018-02-03T18:04:35.028Z,83.90
2018-02-03T18:07:04.321Z,84.40
2018-02-03T18:09:35.909Z,85.10
2018-02-03T18:12:02.470Z,84.40
2018-02-03T18:14:29.028Z,84.40
2018-02-03T18:16:55.621Z,84.70
2018-02-03T18:19:22.247Z,84.50
2018-02-03T18:21:53.121Z,85.10
2018-02-03T18:24:19.673Z,85.20
2018-02-03T18:26:47.208Z,84.40
2018-02-03T18:29:16.775Z,84.30
2018-02-03T18:31:44.263Z,84.10
2018-02-03T18:34:17.942Z,84.10
2018-02-03T18:36:44.493Z,84.30
2018-02-03T18:39:20.989Z,84.30
2018-02-03T18:41:48.655Z,84.30
2018-02-03T18:44:15.390Z,85.00
2018-02-03T18:46:41.923Z,84.20
2018-02-03T18:49:08.582Z,84.50
2018-02-03T18:51:37.110Z,84.60
2018-02-03T18:54:04.382Z,85.10
2018-02-03T18:56:30.954Z,85.10
2018-02-03T18:58:57.474Z,85.40
2018-02-03T19:01:24.055Z,84.90
2018-02-03T19:03:50.614Z,85.00
2018-02-03T19:06:21.036Z,84.80
2018-02-03T19:09:00.913Z,84.80
2018-02-03T19:11:38.689Z,85.10
2018-02-03T19:14:05.974Z,85.10
2018-02-03T19:16:32.503Z,84.90
2018-02-03T19:18:59.042Z,84.60
2018-02-03T19:21:25.598Z,84.60
2018-02-03T19:23:52.102Z,84.70
2018-02-03T19:26:19.399Z,85.40
2018-02-03T19:28:45.955Z,84.60
2018-02-03T19:31:12.526Z,84.70
2018-02-03T19:33:39.123Z,84.80
2018-02-03T19:36:05.706Z,85.00
2018-02-03T19:38:32.250Z,85.00
2018-02-03T19:40:59.522Z,84.90
2018-02-03T19:43:26.136Z,84.90
2018-02-03T19:45:53.431Z,84.90
2018-02-03T19:48:19.957Z,84.90
2018-02-03T19:50:57.731Z,85.10
2018-02-03T19:53:24.314Z,85.10
2018-02-03T19:55:50.894Z,85.00
2018-02-03T19:58:18.166Z,84.80
2018-02-03T20:00:46.770Z,84.80
2018-02-03T20:03:15.394Z,84.90
2018-02-03T20:05:49.903Z,85.10
2018-02-03T20:08:16.455Z,85.10
2018-02-03T20:10:43.741Z,85.30
2018-02-03T20:13:10.298Z,85.30
2018-02-03T20:15:46.977Z,85.20
2018-02-03T20:18:22.745Z,85.30
2018-02-03T20:20:50.309Z,85.30
2018-02-03T20:23:16.926Z,85.50
2018-02-03T20:25:58.803Z,85.60
2018-02-03T20:28:25.354Z,85.70
2018-02-03T20:30:51.873Z,85.70
2018-02-03T20:33:24.601Z,85.80
2018-02-03T20:35:51.105Z,86.00
2018-02-03T20:38:18.355Z,86.20
2018-02-03T20:40:44.953Z,86.10
2018-02-03T20:43:12.234Z,86.40
2018-02-03T20:45:43.444Z,86.60
2018-02-03T20:48:10.052Z,86.60
2018-02-03T20:50:36.581Z,86.40
2018-02-03T20:53:03.144Z,86.40
2018-02-03T20:55:36.750Z,86.60
2018-02-03T20:58:03.274Z,86.60
2018-02-03T21:00:29.833Z,86.50
2018-02-03T21:02:56.390Z,86.50
2018-02-03T21:05:22.971Z,87.50
2018-02-03T21:07:56.748Z,86.70
2018-02-03T21:10:27.235Z,86.60
2018-02-03T21:13:00.918Z,86.50
2018-02-03T21:15:27.447Z,86.50
2018-02-03T21:17:54.000Z,86.80
2018-02-03T21:20:20.838Z,87.30
2018-02-03T21:22:47.461Z,86.50
2018-02-03T21:25:14.015Z,86.40
2018-02-03T21:27:40.800Z,86.80
2018-02-03T21:30:07.378Z,86.90
2018-02-03T21:32:33.978Z,87.00
2018-02-03T21:35:00.535Z,86.80
2018-02-03T21:37:27.050Z,86.90
2018-02-03T21:39:53.685Z,86.90
2018-02-03T21:42:20.274Z,86.60
2018-02-03T21:44:50.733Z,86.80
2018-02-03T21:47:17.406Z,86.90
2018-02-03T21:49:44.802Z,86.80
2018-02-03T21:52:11.331Z,86.70
2018-02-03T21:54:37.927Z,86.80
2018-02-03T21:57:04.490Z,86.80
2018-02-03T21:59:31.042Z,86.90
2018-02-03T22:01:57.621Z,86.70
2018-02-03T22:04:28.128Z,86.60
2018-02-03T22:07:01.780Z,86.70
2018-02-03T22:09:29.085Z,87.10
2018-02-03T22:11:55.719Z,87.10
2018-02-03T22:14:37.695Z,87.10
2018-02-03T22:17:04.215Z,87.00
2018-02-03T22:19:31.463Z,87.00
2018-02-03T22:22:03.691Z,87.80
2018-02-03T22:24:30.222Z,87.00
2018-02-03T22:26:58.811Z,87.00
2018-02-03T22:29:25.402Z,87.00
2018-02-03T22:31:52.675Z,87.00
2018-02-03T22:34:19.192Z,87.00
2018-02-03T22:36:54.969Z,87.00
2018-02-03T22:39:22.654Z,87.80
2018-02-03T22:41:49.202Z,87.00
2018-02-03T22:44:15.756Z,87.00
2018-02-03T22:46:42.273Z,87.00
2018-02-03T22:49:08.841Z,87.00
2018-02-03T22:51:35.391Z,87.40
2018-02-03T22:54:01.923Z,87.60
2018-02-03T22:56:29.186Z,87.70
2018-02-03T22:58:55.739Z,87.70
2018-02-03T23:01:25.327Z,87.80
2018-02-03T23:04:02.734Z,88.00
2018-02-03T23:06:29.418Z,87.90
2018-02-03T23:08:55.946Z,87.90
2018-02-03T23:11:24.554Z,88.10
2018-02-03T23:13:54.027Z,88.40
2018-02-03T23:16:20.575Z,88.30
2018-02-03T23:18:47.099Z,88.30
2018-02-03T23:21:22.837Z,88.40
2018-02-03T23:23:49.490Z,88.40
2018-02-03T23:26:16.165Z,88.40
2018-02-03T23:28:52.751Z,88.40
2018-02-03T23:31:20.074Z,88.40
2018-02-03T23:33:50.518Z,89.10
2018-02-03T23:36:17.841Z,88.10
2018-02-03T23:38:44.578Z,88.10
2018-02-03T23:41:11.146Z,87.90
2018-02-03T23:43:37.694Z,87.80
2018-02-03T23:46:05.011Z,87.80
2018-02-03T23:48:31.541Z,87.70
2018-02-03T23:50:58.084Z,87.80
2018-02-03T23:53:24.757Z,87.80
2018-02-03T23:55:51.286Z,87.90
2018-02-03T23:58:17.896Z,88.20
